sensor_id;sensor_type;location;lat;lon;timestamp;temperature;humidity
23259;DHT22;11798;51.528;7.240;2023-01-19T00:02:17;1.50;99.90
23259;DHT22;11798;51.528;7.240;2023-01-19T00:04:43;1.50;99.90
23259;DHT22;11798;51.528;7.240;2023-01-19T00:07:08;1.50;99.90
23259;DHT22;11798;51.528;7.240;2023-01-19T00:09:34;1.50;99.90
23259;DHT22;11798;51.528;7.240;2023-01-19T00:12:03;1.50;99.90
23259;DHT22;11798;51.528;7.240;2023-01-19T00:14:29;1.50;99.90
23259;DHT22;11798;51.528;7.240;2023-01-19T00:16:54;1.50;99.90
23259;DHT22;11798;51.528;7.240;2023-01-19T00:19:20;1.50;99.90
23259;DHT22;11798;51.528;7.240;2023-01-19T00:21:45;1.40;99.90
23259;DHT22;11798;51.528;7.240;2023-01-19T00:24:11;1.50;99.90
23259;DHT22;11798;51.528;7.240;2023-01-19T00:26:38;1.50;99.90
23259;DHT22;11798;51.528;7.240;2023-01-19T00:29:05;1.60;99.90
23259;DHT22;11798;51.528;7.240;2023-01-19T00:31:32;1.60;99.90
23259;DHT22;11798;51.528;7.240;2023-01-19T00:34:00;1.60;99.90
23259;DHT22;11798;51.528;7.240;2023-01-19T00:36:26;1.60;99.90
23259;DHT22;11798;51.528;7.240;2023-01-19T00:38:52;1.50;99.90
23259;DHT22;11798;51.528;7.240;2023-01-19T00:41:17;1.50;99.90
23259;DHT22;11798;51.528;7.240;2023-01-19T00:43:43;1.50;99.90
23259;DHT22;11798;51.528;7.240;2023-01-19T00:46:09;1.60;99.90
23259;DHT22;11798;51.528;7.240;2023-01-19T00:48:34;1.60;99.90
23259;DHT22;11798;51.528;7.240;2023-01-19T00:51:00;1.70;99.90
23259;DHT22;11798;51.528;7.240;2023-01-19T00:53:26;1.70;99.90
23259;DHT22;11798;51.528;7.240;2023-01-19T00:55:56;1.80;99.90
23259;DHT22;11798;51.528;7.240;2023-01-19T00:58:22;1.80;99.90
23259;DHT22;11798;51.528;7.240;2023-01-19T01:00:47;1.80;99.90
23259;DHT22;11798;51.528;7.240;2023-01-19T01:03:13;1.80;99.90
23259;DHT22;11798;51.528;7.240;2023-01-19T01:05:40;1.80;99.90
23259;DHT22;11798;51.528;7.240;2023-01-19T01:08:06;1.80;99.90
23259;DHT22;11798;51.528;7.240;2023-01-19T01:10:32;1.80;99.90
23259;DHT22;11798;51.528;7.240;2023-01-19T01:12:58;1.90;99.90
23259;DHT22;11798;51.528;7.240;2023-01-19T01:15:24;1.90;99.90
23259;DHT22;11798;51.528;7.240;2023-01-19T01:17:50;1.90;99.90
23259;DHT22;11798;51.528;7.240;2023-01-19T01:20:19;1.90;99.90
23259;DHT22;11798;51.528;7.240;2023-01-19T01:22:48;1.90;99.90
23259;DHT22;11798;51.528;7.240;2023-01-19T01:25:16;1.90;99.90
23259;DHT22;11798;51.528;7.240;2023-01-19T01:27:43;1.90;99.90
23259;DHT22;11798;51.528;7.240;2023-01-19T01:30:10;1.90;99.90
23259;DHT22;11798;51.528;7.240;2023-01-19T01:32:36;2.00;99.90
23259;DHT22;11798;51.528;7.240;2023-01-19T01:35:02;2.00;99.90
23259;DHT22;11798;51.528;7.240;2023-01-19T01:37:28;2.00;99.90
23259;DHT22;11798;51.528;7.240;2023-01-19T01:39:53;2.00;99.90
23259;DHT22;11798;51.528;7.240;2023-01-19T01:42:25;2.00;99.90
23259;DHT22;11798;51.528;7.240;2023-01-19T01:44:53;2.00;99.90
23259;DHT22;11798;51.528;7.240;2023-01-19T01:47:26;2.00;99.90
23259;DHT22;11798;51.528;7.240;2023-01-19T01:52:33;2.00;99.90
23259;DHT22;11798;51.528;7.240;2023-01-19T01:55:02;2.00;99.90
23259;DHT22;11798;51.528;7.240;2023-01-19T01:57:32;2.00;99.90
23259;DHT22;11798;51.528;7.240;2023-01-19T01:59:58;2.00;99.90
23259;DHT22;11798;51.528;7.240;2023-01-19T02:02:27;2.00;99.90
23259;DHT22;11798;51.528;7.240;2023-01-19T02:05:34;2.00;99.90
23259;DHT22;11798;51.528;7.240;2023-01-19T02:08:14;2.00;99.90
23259;DHT22;11798;51.528;7.240;2023-01-19T02:11:00;2.10;99.90
23259;DHT22;11798;51.528;7.240;2023-01-19T02:13:46;2.10;99.90
23259;DHT22;11798;51.528;7.240;2023-01-19T02:16:13;2.10;99.90
23259;DHT22;11798;51.528;7.240;2023-01-19T02:18:40;2.10;99.90
23259;DHT22;11798;51.528;7.240;2023-01-19T02:23:41;2.10;99.90
23259;DHT22;11798;51.528;7.240;2023-01-19T02:26:11;2.10;99.90
23259;DHT22;11798;51.528;7.240;2023-01-19T02:28:41;2.10;99.90
23259;DHT22;11798;51.528;7.240;2023-01-19T02:31:08;2.00;99.90
23259;DHT22;11798;51.528;7.240;2023-01-19T02:33:34;2.10;99.90
23259;DHT22;11798;51.528;7.240;2023-01-19T02:36:02;2.10;99.90
23259;DHT22;11798;51.528;7.240;2023-01-19T02:38:29;2.10;99.90
23259;DHT22;11798;51.528;7.240;2023-01-19T02:40:57;2.10;99.90
23259;DHT22;11798;51.528;7.240;2023-01-19T02:43:25;2.10;99.90
23259;DHT22;11798;51.528;7.240;2023-01-19T02:45:52;2.10;99.90
23259;DHT22;11798;51.528;7.240;2023-01-19T02:48:19;2.10;99.90
23259;DHT22;11798;51.528;7.240;2023-01-19T02:50:46;2.10;99.90
23259;DHT22;11798;51.528;7.240;2023-01-19T02:55:51;2.00;99.90
23259;DHT22;11798;51.528;7.240;2023-01-19T02:58:32;2.00;99.90
23259;DHT22;11798;51.528;7.240;2023-01-19T03:01:19;2.00;99.90
23259;DHT22;11798;51.528;7.240;2023-01-19T03:03:56;2.00;99.90
23259;DHT22;11798;51.528;7.240;2023-01-19T03:06:41;2.00;99.90
23259;DHT22;11798;51.528;7.240;2023-01-19T03:11:49;2.00;99.90
23259;DHT22;11798;51.528;7.240;2023-01-19T03:14:21;2.00;99.90
23259;DHT22;11798;51.528;7.240;2023-01-19T03:16:55;2.00;99.90
23259;DHT22;11798;51.528;7.240;2023-01-19T03:19:26;2.00;99.90
23259;DHT22;11798;51.528;7.240;2023-01-19T03:22:01;1.90;99.90
23259;DHT22;11798;51.528;7.240;2023-01-19T03:24:30;2.00;99.90
23259;DHT22;11798;51.528;7.240;2023-01-19T03:27:01;1.90;99.90
23259;DHT22;11798;51.528;7.240;2023-01-19T03:29:31;1.90;99.90
23259;DHT22;11798;51.528;7.240;2023-01-19T03:32:02;2.00;99.90
23259;DHT22;11798;51.528;7.240;2023-01-19T03:34:28;2.00;99.90
23259;DHT22;11798;51.528;7.240;2023-01-19T03:36:58;2.00;99.90
23259;DHT22;11798;51.528;7.240;2023-01-19T03:39:27;2.00;99.90
23259;DHT22;11798;51.528;7.240;2023-01-19T03:42:00;2.00;99.90
23259;DHT22;11798;51.528;7.240;2023-01-19T03:44:28;2.00;99.90
23259;DHT22;11798;51.528;7.240;2023-01-19T03:46:56;2.00;99.90
23259;DHT22;11798;51.528;7.240;2023-01-19T03:49:23;2.00;99.90
23259;DHT22;11798;51.528;7.240;2023-01-19T03:51:49;2.00;99.90
23259;DHT22;11798;51.528;7.240;2023-01-19T03:54:14;2.00;99.90
23259;DHT22;11798;51.528;7.240;2023-01-19T03:56:40;2.10;99.90
23259;DHT22;11798;51.528;7.240;2023-01-19T03:59:08;2.10;99.90
23259;DHT22;11798;51.528;7.240;2023-01-19T04:01:33;2.10;99.90
23259;DHT22;11798;51.528;7.240;2023-01-19T04:03:59;2.20;99.90
23259;DHT22;11798;51.528;7.240;2023-01-19T04:06:25;2.10;99.90
23259;DHT22;11798;51.528;7.240;2023-01-19T04:08:51;2.20;99.90
23259;DHT22;11798;51.528;7.240;2023-01-19T04:11:16;2.20;99.90
23259;DHT22;11798;51.528;7.240;2023-01-19T04:13:42;2.20;99.90
23259;DHT22;11798;51.528;7.240;2023-01-19T04:16:10;2.20;99.90
23259;DHT22;11798;51.528;7.240;2023-01-19T04:18:36;2.20;99.90
23259;DHT22;11798;51.528;7.240;2023-01-19T04:21:03;2.10;99.90
23259;DHT22;11798;51.528;7.240;2023-01-19T04:23:29;2.10;99.90
23259;DHT22;11798;51.528;7.240;2023-01-19T04:26:03;2.10;99.90
23259;DHT22;11798;51.528;7.240;2023-01-19T04:28:30;2.10;99.90
23259;DHT22;11798;51.528;7.240;2023-01-19T04:30:55;2.10;99.90
23259;DHT22;11798;51.528;7.240;2023-01-19T04:33:21;2.10;99.90
23259;DHT22;11798;51.528;7.240;2023-01-19T04:35:48;2.00;99.90
23259;DHT22;11798;51.528;7.240;2023-01-19T04:38:14;1.90;99.90
23259;DHT22;11798;51.528;7.240;2023-01-19T04:40:40;1.90;99.90
23259;DHT22;11798;51.528;7.240;2023-01-19T04:43:06;1.80;99.90
23259;DHT22;11798;51.528;7.240;2023-01-19T04:45:32;1.70;99.90
23259;DHT22;11798;51.528;7.240;2023-01-19T04:47:57;1.60;99.90
23259;DHT22;11798;51.528;7.240;2023-01-19T04:50:23;1.60;99.90
23259;DHT22;11798;51.528;7.240;2023-01-19T04:52:49;1.50;99.90
23259;DHT22;11798;51.528;7.240;2023-01-19T04:55:15;1.60;99.90
23259;DHT22;11798;51.528;7.240;2023-01-19T04:57:41;1.50;99.90
23259;DHT22;11798;51.528;7.240;2023-01-19T05:00:07;1.50;99.90
23259;DHT22;11798;51.528;7.240;2023-01-19T05:02:34;1.40;99.90
23259;DHT22;11798;51.528;7.240;2023-01-19T05:04:59;1.40;99.90
23259;DHT22;11798;51.528;7.240;2023-01-19T05:07:25;1.40;99.90
23259;DHT22;11798;51.528;7.240;2023-01-19T05:09:51;1.50;99.90
23259;DHT22;11798;51.528;7.240;2023-01-19T05:12:16;1.40;99.90
23259;DHT22;11798;51.528;7.240;2023-01-19T05:14:42;1.40;99.90
23259;DHT22;11798;51.528;7.240;2023-01-19T05:17:08;1.40;99.90
23259;DHT22;11798;51.528;7.240;2023-01-19T05:19:33;1.40;99.90
23259;DHT22;11798;51.528;7.240;2023-01-19T05:22:01;1.40;99.90
23259;DHT22;11798;51.528;7.240;2023-01-19T05:24:27;1.40;99.90
23259;DHT22;11798;51.528;7.240;2023-01-19T05:26:53;1.30;99.90
23259;DHT22;11798;51.528;7.240;2023-01-19T05:29:19;1.30;99.90
23259;DHT22;11798;51.528;7.240;2023-01-19T05:31:44;1.30;99.90
23259;DHT22;11798;51.528;7.240;2023-01-19T05:34:10;1.30;99.90
23259;DHT22;11798;51.528;7.240;2023-01-19T05:36:36;1.30;99.90
23259;DHT22;11798;51.528;7.240;2023-01-19T05:39:02;1.30;99.90
23259;DHT22;11798;51.528;7.240;2023-01-19T05:41:28;1.30;99.90
23259;DHT22;11798;51.528;7.240;2023-01-19T05:43:53;1.30;99.90
23259;DHT22;11798;51.528;7.240;2023-01-19T05:46:19;1.30;99.90
23259;DHT22;11798;51.528;7.240;2023-01-19T05:48:44;1.20;99.90
23259;DHT22;11798;51.528;7.240;2023-01-19T05:51:10;1.20;99.90
23259;DHT22;11798;51.528;7.240;2023-01-19T05:53:35;1.10;99.90
23259;DHT22;11798;51.528;7.240;2023-01-19T05:56:05;1.20;99.90
23259;DHT22;11798;51.528;7.240;2023-01-19T05:58:33;1.30;99.90
23259;DHT22;11798;51.528;7.240;2023-01-19T06:01:07;1.20;99.90
23259;DHT22;11798;51.528;7.240;2023-01-19T06:03:34;1.10;99.90
23259;DHT22;11798;51.528;7.240;2023-01-19T06:06:00;1.20;99.90
23259;DHT22;11798;51.528;7.240;2023-01-19T06:08:26;1.20;99.90
23259;DHT22;11798;51.528;7.240;2023-01-19T06:10:52;1.10;99.90
23259;DHT22;11798;51.528;7.240;2023-01-19T06:13:18;1.10;99.90
23259;DHT22;11798;51.528;7.240;2023-01-19T06:15:43;1.20;99.90
23259;DHT22;11798;51.528;7.240;2023-01-19T06:18:12;1.20;99.90
23259;DHT22;11798;51.528;7.240;2023-01-19T06:20:39;1.10;99.90
23259;DHT22;11798;51.528;7.240;2023-01-19T06:23:05;1.10;99.90
23259;DHT22;11798;51.528;7.240;2023-01-19T06:25:31;1.20;99.90
23259;DHT22;11798;51.528;7.240;2023-01-19T06:27:56;1.10;99.90
23259;DHT22;11798;51.528;7.240;2023-01-19T06:30:22;1.10;99.90
23259;DHT22;11798;51.528;7.240;2023-01-19T06:32:47;1.10;99.90
23259;DHT22;11798;51.528;7.240;2023-01-19T06:35:13;1.20;99.90
23259;DHT22;11798;51.528;7.240;2023-01-19T06:37:39;1.10;99.90
23259;DHT22;11798;51.528;7.240;2023-01-19T06:40:06;1.10;99.90
23259;DHT22;11798;51.528;7.240;2023-01-19T06:42:32;1.10;99.90
23259;DHT22;11798;51.528;7.240;2023-01-19T06:44:58;1.10;99.90
23259;DHT22;11798;51.528;7.240;2023-01-19T06:47:23;1.10;99.90
23259;DHT22;11798;51.528;7.240;2023-01-19T06:49:49;1.10;99.90
23259;DHT22;11798;51.528;7.240;2023-01-19T06:52:15;1.00;99.90
23259;DHT22;11798;51.528;7.240;2023-01-19T06:54:42;1.10;99.90
23259;DHT22;11798;51.528;7.240;2023-01-19T06:57:08;1.10;99.90
23259;DHT22;11798;51.528;7.240;2023-01-19T06:59:35;1.10;99.90
23259;DHT22;11798;51.528;7.240;2023-01-19T07:02:00;1.10;99.90
23259;DHT22;11798;51.528;7.240;2023-01-19T07:04:26;1.20;99.90
23259;DHT22;11798;51.528;7.240;2023-01-19T07:06:52;1.10;99.90
23259;DHT22;11798;51.528;7.240;2023-01-19T07:09:17;1.10;99.90
23259;DHT22;11798;51.528;7.240;2023-01-19T07:11:45;1.10;99.90
23259;DHT22;11798;51.528;7.240;2023-01-19T07:14:11;1.10;99.90
23259;DHT22;11798;51.528;7.240;2023-01-19T07:16:36;1.10;99.90
23259;DHT22;11798;51.528;7.240;2023-01-19T07:19:02;1.20;99.90
23259;DHT22;11798;51.528;7.240;2023-01-19T07:21:28;1.00;99.90
23259;DHT22;11798;51.528;7.240;2023-01-19T07:23:53;1.10;99.90
23259;DHT22;11798;51.528;7.240;2023-01-19T07:26:19;1.20;99.90
23259;DHT22;11798;51.528;7.240;2023-01-19T07:28:46;1.10;99.90
23259;DHT22;11798;51.528;7.240;2023-01-19T07:31:13;1.20;99.90
23259;DHT22;11798;51.528;7.240;2023-01-19T07:33:38;1.20;99.90
23259;DHT22;11798;51.528;7.240;2023-01-19T07:36:04;1.20;99.90
23259;DHT22;11798;51.528;7.240;2023-01-19T07:38:30;1.20;99.90
23259;DHT22;11798;51.528;7.240;2023-01-19T07:40:59;1.20;99.90
23259;DHT22;11798;51.528;7.240;2023-01-19T07:43:25;1.20;99.90
23259;DHT22;11798;51.528;7.240;2023-01-19T07:45:51;1.20;99.90
23259;DHT22;11798;51.528;7.240;2023-01-19T07:48:17;1.30;99.90
23259;DHT22;11798;51.528;7.240;2023-01-19T07:50:42;1.30;99.90
23259;DHT22;11798;51.528;7.240;2023-01-19T07:53:09;1.30;99.90
23259;DHT22;11798;51.528;7.240;2023-01-19T07:55:36;1.30;99.90
23259;DHT22;11798;51.528;7.240;2023-01-19T07:58:01;1.30;99.90
23259;DHT22;11798;51.528;7.240;2023-01-19T08:00:30;1.30;99.90
23259;DHT22;11798;51.528;7.240;2023-01-19T08:02:59;1.30;99.90
23259;DHT22;11798;51.528;7.240;2023-01-19T08:05:25;1.30;99.90
23259;DHT22;11798;51.528;7.240;2023-01-19T08:07:51;1.30;99.90
23259;DHT22;11798;51.528;7.240;2023-01-19T08:10:17;1.40;99.90
23259;DHT22;11798;51.528;7.240;2023-01-19T08:12:47;1.40;99.90
23259;DHT22;11798;51.528;7.240;2023-01-19T08:15:12;1.40;99.90
23259;DHT22;11798;51.528;7.240;2023-01-19T08:17:38;1.40;99.90
23259;DHT22;11798;51.528;7.240;2023-01-19T08:20:04;1.50;99.90
23259;DHT22;11798;51.528;7.240;2023-01-19T08:22:31;1.50;99.90
23259;DHT22;11798;51.528;7.240;2023-01-19T08:24:56;1.50;99.90
23259;DHT22;11798;51.528;7.240;2023-01-19T08:27:22;1.40;99.90
23259;DHT22;11798;51.528;7.240;2023-01-19T08:29:47;1.50;99.90
23259;DHT22;11798;51.528;7.240;2023-01-19T08:32:13;1.50;99.90
23259;DHT22;11798;51.528;7.240;2023-01-19T08:34:38;1.50;99.90
23259;DHT22;11798;51.528;7.240;2023-01-19T08:37:04;1.60;99.90
23259;DHT22;11798;51.528;7.240;2023-01-19T08:39:29;1.60;99.90
23259;DHT22;11798;51.528;7.240;2023-01-19T08:41:55;1.50;99.90
23259;DHT22;11798;51.528;7.240;2023-01-19T08:44:21;1.60;99.90
23259;DHT22;11798;51.528;7.240;2023-01-19T08:46:47;1.70;99.90
23259;DHT22;11798;51.528;7.240;2023-01-19T08:49:12;1.60;99.90
23259;DHT22;11798;51.528;7.240;2023-01-19T08:51:38;1.70;99.90
23259;DHT22;11798;51.528;7.240;2023-01-19T08:54:04;1.70;99.90
23259;DHT22;11798;51.528;7.240;2023-01-19T08:56:29;1.70;99.90
23259;DHT22;11798;51.528;7.240;2023-01-19T08:58:56;1.70;99.90
23259;DHT22;11798;51.528;7.240;2023-01-19T09:01:21;1.70;99.90
23259;DHT22;11798;51.528;7.240;2023-01-19T09:03:48;1.60;99.90
23259;DHT22;11798;51.528;7.240;2023-01-19T09:06:15;1.70;99.90
23259;DHT22;11798;51.528;7.240;2023-01-19T09:08:44;1.70;99.90
23259;DHT22;11798;51.528;7.240;2023-01-19T09:11:10;1.70;99.90
23259;DHT22;11798;51.528;7.240;2023-01-19T09:13:36;1.70;99.90
23259;DHT22;11798;51.528;7.240;2023-01-19T09:16:02;1.70;99.90
23259;DHT22;11798;51.528;7.240;2023-01-19T09:18:28;1.80;99.90
23259;DHT22;11798;51.528;7.240;2023-01-19T09:20:56;1.70;99.90
23259;DHT22;11798;51.528;7.240;2023-01-19T09:23:22;1.70;99.90
23259;DHT22;11798;51.528;7.240;2023-01-19T09:25:48;1.70;99.90
23259;DHT22;11798;51.528;7.240;2023-01-19T09:28:19;1.70;99.90
23259;DHT22;11798;51.528;7.240;2023-01-19T09:30:45;1.70;99.90
23259;DHT22;11798;51.528;7.240;2023-01-19T09:33:13;1.80;99.90
23259;DHT22;11798;51.528;7.240;2023-01-19T09:35:40;1.70;99.90
23259;DHT22;11798;51.528;7.240;2023-01-19T09:38:06;1.80;99.90
23259;DHT22;11798;51.528;7.240;2023-01-19T09:40:34;1.90;99.90
23259;DHT22;11798;51.528;7.240;2023-01-19T09:45:57;1.90;99.90
23259;DHT22;11798;51.528;7.240;2023-01-19T09:51:32;1.90;99.90
23259;DHT22;11798;51.528;7.240;2023-01-19T09:54:12;1.90;99.90
23259;DHT22;11798;51.528;7.240;2023-01-19T09:56:39;2.00;99.90
23259;DHT22;11798;51.528;7.240;2023-01-19T09:59:27;2.00;99.90
23259;DHT22;11798;51.528;7.240;2023-01-19T10:02:06;2.00;99.90
23259;DHT22;11798;51.528;7.240;2023-01-19T10:04:40;2.00;99.90
23259;DHT22;11798;51.528;7.240;2023-01-19T10:12:20;2.10;99.90
23259;DHT22;11798;51.528;7.240;2023-01-19T10:15:13;2.20;99.90
23259;DHT22;11798;51.528;7.240;2023-01-19T10:18:19;2.20;99.90
23259;DHT22;11798;51.528;7.240;2023-01-19T10:26:23;2.20;99.90
23259;DHT22;11798;51.528;7.240;2023-01-19T10:28:53;2.20;99.90
23259;DHT22;11798;51.528;7.240;2023-01-19T10:31:22;2.30;99.90
23259;DHT22;11798;51.528;7.240;2023-01-19T10:33:52;2.20;99.90
23259;DHT22;11798;51.528;7.240;2023-01-19T10:36:21;2.20;99.90
23259;DHT22;11798;51.528;7.240;2023-01-19T10:38:50;2.20;99.90
23259;DHT22;11798;51.528;7.240;2023-01-19T10:41:43;2.10;99.90
23259;DHT22;11798;51.528;7.240;2023-01-19T10:44:09;2.10;99.90
23259;DHT22;11798;51.528;7.240;2023-01-19T10:46:44;2.10;99.90
23259;DHT22;11798;51.528;7.240;2023-01-19T10:49:23;2.00;99.90
23259;DHT22;11798;51.528;7.240;2023-01-19T10:51:49;2.10;99.90
23259;DHT22;11798;51.528;7.240;2023-01-19T10:54:15;2.10;99.90
23259;DHT22;11798;51.528;7.240;2023-01-19T10:56:41;2.10;99.90
23259;DHT22;11798;51.528;7.240;2023-01-19T11:02:24;2.20;99.90
23259;DHT22;11798;51.528;7.240;2023-01-19T11:05:01;2.20;99.90
23259;DHT22;11798;51.528;7.240;2023-01-19T11:07:45;2.30;99.90
23259;DHT22;11798;51.528;7.240;2023-01-19T11:15:21;2.40;99.90
23259;DHT22;11798;51.528;7.240;2023-01-19T11:17:48;2.40;99.90
23259;DHT22;11798;51.528;7.240;2023-01-19T11:20:23;2.40;99.90
23259;DHT22;11798;51.528;7.240;2023-01-19T11:23:06;2.40;99.90
23259;DHT22;11798;51.528;7.240;2023-01-19T11:25:34;2.40;99.90
23259;DHT22;11798;51.528;7.240;2023-01-19T11:28:00;2.40;99.90
23259;DHT22;11798;51.528;7.240;2023-01-19T11:30:34;2.50;99.90
23259;DHT22;11798;51.528;7.240;2023-01-19T11:32:59;2.70;99.90
23259;DHT22;11798;51.528;7.240;2023-01-19T11:35:37;2.80;99.90
23259;DHT22;11798;51.528;7.240;2023-01-19T11:38:25;2.90;99.90
23259;DHT22;11798;51.528;7.240;2023-01-19T11:40:54;3.00;99.90
23259;DHT22;11798;51.528;7.240;2023-01-19T11:43:22;3.00;99.90
23259;DHT22;11798;51.528;7.240;2023-01-19T11:45:48;3.00;99.90
23259;DHT22;11798;51.528;7.240;2023-01-19T11:48:35;2.80;99.90
23259;DHT22;11798;51.528;7.240;2023-01-19T11:51:03;2.90;99.90
23259;DHT22;11798;51.528;7.240;2023-01-19T11:53:33;3.00;99.90
23259;DHT22;11798;51.528;7.240;2023-01-19T11:56:09;2.90;99.90
23259;DHT22;11798;51.528;7.240;2023-01-19T11:58:44;2.80;99.90
23259;DHT22;11798;51.528;7.240;2023-01-19T12:01:28;2.90;99.90
23259;DHT22;11798;51.528;7.240;2023-01-19T12:06:30;2.90;99.90
23259;DHT22;11798;51.528;7.240;2023-01-19T12:08:57;2.80;99.90
23259;DHT22;11798;51.528;7.240;2023-01-19T12:11:32;2.80;99.90
23259;DHT22;11798;51.528;7.240;2023-01-19T12:13:59;2.80;99.90
23259;DHT22;11798;51.528;7.240;2023-01-19T12:16:28;2.80;99.90
23259;DHT22;11798;51.528;7.240;2023-01-19T12:19:03;2.90;99.90
23259;DHT22;11798;51.528;7.240;2023-01-19T12:21:29;2.90;99.90
23259;DHT22;11798;51.528;7.240;2023-01-19T12:23:58;3.00;99.90
23259;DHT22;11798;51.528;7.240;2023-01-19T12:26:34;3.00;99.90
23259;DHT22;11798;51.528;7.240;2023-01-19T12:29:16;3.00;99.90
23259;DHT22;11798;51.528;7.240;2023-01-19T12:31:42;3.00;99.90
23259;DHT22;11798;51.528;7.240;2023-01-19T12:34:27;3.00;99.90
23259;DHT22;11798;51.528;7.240;2023-01-19T12:37:01;3.00;99.90
23259;DHT22;11798;51.528;7.240;2023-01-19T12:39:28;3.10;99.90
23259;DHT22;11798;51.528;7.240;2023-01-19T12:42:15;3.00;99.90
23259;DHT22;11798;51.528;7.240;2023-01-19T12:44:43;3.00;99.90
23259;DHT22;11798;51.528;7.240;2023-01-19T12:50:12;3.00;99.90
23259;DHT22;11798;51.528;7.240;2023-01-19T12:52:37;3.00;99.90
23259;DHT22;11798;51.528;7.240;2023-01-19T12:58:22;3.20;99.90
23259;DHT22;11798;51.528;7.240;2023-01-19T13:00:50;3.30;99.90
23259;DHT22;11798;51.528;7.240;2023-01-19T13:04:00;3.20;99.90
23259;DHT22;11798;51.528;7.240;2023-01-19T13:09:34;3.40;99.90
23259;DHT22;11798;51.528;7.240;2023-01-19T13:12:22;3.40;99.90
23259;DHT22;11798;51.528;7.240;2023-01-19T13:14:48;3.40;99.90
23259;DHT22;11798;51.528;7.240;2023-01-19T13:19:57;3.20;99.90
23259;DHT22;11798;51.528;7.240;2023-01-19T13:25:27;3.20;99.90
23259;DHT22;11798;51.528;7.240;2023-01-19T13:27:54;3.20;99.90
23259;DHT22;11798;51.528;7.240;2023-01-19T13:30:23;3.20;99.90
23259;DHT22;11798;51.528;7.240;2023-01-19T13:32:52;3.10;99.90
23259;DHT22;11798;51.528;7.240;2023-01-19T13:35:19;3.20;99.90
23259;DHT22;11798;51.528;7.240;2023-01-19T13:37:45;3.30;99.90
23259;DHT22;11798;51.528;7.240;2023-01-19T13:40:38;3.20;99.90
23259;DHT22;11798;51.528;7.240;2023-01-19T13:43:10;3.10;99.90
23259;DHT22;11798;51.528;7.240;2023-01-19T13:45:39;3.20;99.90
23259;DHT22;11798;51.528;7.240;2023-01-19T13:48:07;3.20;99.90
23259;DHT22;11798;51.528;7.240;2023-01-19T13:50:37;3.20;99.90
23259;DHT22;11798;51.528;7.240;2023-01-19T13:53:18;3.20;99.90
23259;DHT22;11798;51.528;7.240;2023-01-19T13:55:44;3.40;99.90
23259;DHT22;11798;51.528;7.240;2023-01-19T13:58:22;3.30;99.90
23259;DHT22;11798;51.528;7.240;2023-01-19T14:00:48;3.40;99.90
23259;DHT22;11798;51.528;7.240;2023-01-19T14:05:41;3.40;99.90
23259;DHT22;11798;51.528;7.240;2023-01-19T14:15:48;3.30;99.90
23259;DHT22;11798;51.528;7.240;2023-01-19T14:26:04;3.50;99.90
23259;DHT22;11798;51.528;7.240;2023-01-19T14:28:35;3.50;99.90
23259;DHT22;11798;51.528;7.240;2023-01-19T14:31:19;3.50;99.90
23259;DHT22;11798;51.528;7.240;2023-01-19T14:33:46;3.40;99.90
23259;DHT22;11798;51.528;7.240;2023-01-19T14:36:24;3.40;99.90
23259;DHT22;11798;51.528;7.240;2023-01-19T14:38:51;3.40;99.90
23259;DHT22;11798;51.528;7.240;2023-01-19T14:41:47;3.40;99.90
23259;DHT22;11798;51.528;7.240;2023-01-19T14:44:21;3.40;99.90
23259;DHT22;11798;51.528;7.240;2023-01-19T14:46:49;3.40;99.90
23259;DHT22;11798;51.528;7.240;2023-01-19T14:49:37;3.50;99.90
23259;DHT22;11798;51.528;7.240;2023-01-19T14:54:47;3.60;99.90
23259;DHT22;11798;51.528;7.240;2023-01-19T14:57:13;3.50;99.90
23259;DHT22;11798;51.528;7.240;2023-01-19T14:59:40;3.60;99.90
23259;DHT22;11798;51.528;7.240;2023-01-19T15:02:05;3.50;99.90
23259;DHT22;11798;51.528;7.240;2023-01-19T15:04:31;3.40;99.90
23259;DHT22;11798;51.528;7.240;2023-01-19T15:06:57;3.40;99.90
23259;DHT22;11798;51.528;7.240;2023-01-19T15:09:23;3.40;99.90
23259;DHT22;11798;51.528;7.240;2023-01-19T15:11:49;3.40;99.90
23259;DHT22;11798;51.528;7.240;2023-01-19T15:14:16;3.50;99.90
23259;DHT22;11798;51.528;7.240;2023-01-19T15:16:43;3.40;99.90
23259;DHT22;11798;51.528;7.240;2023-01-19T15:19:13;3.30;99.90
23259;DHT22;11798;51.528;7.240;2023-01-19T15:21:40;3.40;99.90
23259;DHT22;11798;51.528;7.240;2023-01-19T15:24:09;3.40;99.90
23259;DHT22;11798;51.528;7.240;2023-01-19T15:26:37;3.30;99.90
23259;DHT22;11798;51.528;7.240;2023-01-19T15:29:13;3.10;99.90
23259;DHT22;11798;51.528;7.240;2023-01-19T15:31:40;3.10;99.90
23259;DHT22;11798;51.528;7.240;2023-01-19T15:34:10;3.00;99.90
23259;DHT22;11798;51.528;7.240;2023-01-19T15:36:36;3.00;99.90
23259;DHT22;11798;51.528;7.240;2023-01-19T15:39:02;3.10;99.90
23259;DHT22;11798;51.528;7.240;2023-01-19T15:41:27;3.00;99.90
23259;DHT22;11798;51.528;7.240;2023-01-19T15:43:54;3.00;99.90
23259;DHT22;11798;51.528;7.240;2023-01-19T15:46:21;2.90;99.90
23259;DHT22;11798;51.528;7.240;2023-01-19T15:48:48;2.80;99.90
23259;DHT22;11798;51.528;7.240;2023-01-19T15:51:16;2.70;99.90
23259;DHT22;11798;51.528;7.240;2023-01-19T15:53:43;2.70;99.90
23259;DHT22;11798;51.528;7.240;2023-01-19T15:56:17;2.70;99.90
23259;DHT22;11798;51.528;7.240;2023-01-19T15:58:43;2.70;99.90
23259;DHT22;11798;51.528;7.240;2023-01-19T16:01:14;2.70;99.90
23259;DHT22;11798;51.528;7.240;2023-01-19T16:03:41;2.50;99.90
23259;DHT22;11798;51.528;7.240;2023-01-19T16:06:07;2.60;99.90
23259;DHT22;11798;51.528;7.240;2023-01-19T16:08:33;2.60;99.90
23259;DHT22;11798;51.528;7.240;2023-01-19T16:11:10;2.60;99.90
23259;DHT22;11798;51.528;7.240;2023-01-19T16:13:36;2.60;99.90
23259;DHT22;11798;51.528;7.240;2023-01-19T16:16:07;2.70;99.90
23259;DHT22;11798;51.528;7.240;2023-01-19T16:18:33;2.60;99.90
23259;DHT22;11798;51.528;7.240;2023-01-19T16:21:00;2.50;99.90
23259;DHT22;11798;51.528;7.240;2023-01-19T16:23:25;2.50;99.90
23259;DHT22;11798;51.528;7.240;2023-01-19T16:26:02;2.50;99.90
23259;DHT22;11798;51.528;7.240;2023-01-19T16:28:29;2.50;99.90
23259;DHT22;11798;51.528;7.240;2023-01-19T16:30:55;2.40;99.90
23259;DHT22;11798;51.528;7.240;2023-01-19T16:33:21;2.40;99.90
23259;DHT22;11798;51.528;7.240;2023-01-19T16:35:47;2.30;99.90
23259;DHT22;11798;51.528;7.240;2023-01-19T16:38:12;2.30;99.90
23259;DHT22;11798;51.528;7.240;2023-01-19T16:40:38;2.30;99.90
23259;DHT22;11798;51.528;7.240;2023-01-19T16:43:03;2.20;99.90
23259;DHT22;11798;51.528;7.240;2023-01-19T16:45:29;2.20;99.90
23259;DHT22;11798;51.528;7.240;2023-01-19T16:47:55;2.20;99.90
23259;DHT22;11798;51.528;7.240;2023-01-19T16:50:20;2.20;99.90
23259;DHT22;11798;51.528;7.240;2023-01-19T16:52:46;2.20;99.90
23259;DHT22;11798;51.528;7.240;2023-01-19T16:55:11;2.10;99.90
23259;DHT22;11798;51.528;7.240;2023-01-19T16:57:37;2.10;99.90
23259;DHT22;11798;51.528;7.240;2023-01-19T17:00:07;2.20;99.90
23259;DHT22;11798;51.528;7.240;2023-01-19T17:02:36;2.10;99.90
23259;DHT22;11798;51.528;7.240;2023-01-19T17:05:02;2.10;99.90
23259;DHT22;11798;51.528;7.240;2023-01-19T17:07:27;2.10;99.90
23259;DHT22;11798;51.528;7.240;2023-01-19T17:09:53;2.10;99.90